createdAt,value
2023-05-04T00:00:12.473Z,2.35
2023-05-04T00:01:12.438Z,2.35
2023-05-04T00:02:12.477Z,2.35
2023-05-04T00:03:12.405Z,2.33
2023-05-04T00:04:12.410Z,2.39
2023-05-04T00:05:12.405Z,2.44
2023-05-04T00:06:12.350Z,2.38
2023-05-04T00:07:12.328Z,2.38
2023-05-04T00:08:12.348Z,2.35
2023-05-04T00:09:12.349Z,2.33
2023-05-04T00:10:12.331Z,2.36
2023-05-04T00:11:12.309Z,2.33
2023-05-04T00:12:12.287Z,2.31
2023-05-04T00:13:12.353Z,2.26
2023-05-04T00:14:12.289Z,2.22
2023-05-04T00:15:12.254Z,2.17
2023-05-04T00:16:12.372Z,2.15
2023-05-04T00:17:12.209Z,2.13
2023-05-04T00:18:12.207Z,2.11
2023-05-04T00:19:12.238Z,2.10
2023-05-04T00:20:12.168Z,2.07
2023-05-04T00:21:12.165Z,2.06
2023-05-04T00:22:12.160Z,2.02
2023-05-04T00:23:12.183Z,2.02
2023-05-04T00:24:12.179Z,2.02
2023-05-04T00:25:12.121Z,2.02
2023-05-04T00:26:12.111Z,2.06
2023-05-04T00:27:12.074Z,2.07
2023-05-04T00:28:12.288Z,2.08
2023-05-04T00:29:12.085Z,2.07
2023-05-04T00:30:12.097Z,2.00
2023-05-04T00:31:12.148Z,1.97
2023-05-04T00:32:12.055Z,1.95
2023-05-04T00:33:12.131Z,1.92
2023-05-04T00:34:12.019Z,1.84
2023-05-04T00:35:12.014Z,1.80
2023-05-04T00:36:12.002Z,1.78
2023-05-04T00:37:11.988Z,1.76
2023-05-04T00:38:12.012Z,1.77
2023-05-04T00:39:11.973Z,1.78
2023-05-04T00:40:11.961Z,1.76
2023-05-04T00:41:11.954Z,1.74
2023-05-04T00:42:11.972Z,1.73
2023-05-04T00:43:11.944Z,1.77
2023-05-04T00:44:11.914Z,1.74
2023-05-04T00:45:11.897Z,1.67
2023-05-04T00:46:11.960Z,1.58
2023-05-04T00:47:12.001Z,1.53
2023-05-04T00:48:11.912Z,1.52
2023-05-04T00:49:11.857Z,1.49
2023-05-04T00:50:11.855Z,1.44
2023-05-04T00:51:11.828Z,1.45
2023-05-04T00:52:11.863Z,1.45
2023-05-04T00:53:11.809Z,1.45
2023-05-04T00:54:11.814Z,1.48
2023-05-04T00:55:11.799Z,1.50
2023-05-04T00:56:11.847Z,1.50
2023-05-04T00:57:11.801Z,1.45
2023-05-04T00:58:11.744Z,1.41
2023-05-04T00:59:11.754Z,1.37
2023-05-04T01:00:11.710Z,1.31
2023-05-04T01:01:11.862Z,1.32
2023-05-04T01:02:11.750Z,1.35
2023-05-04T01:03:11.753Z,1.34
2023-05-04T01:04:11.742Z,1.30
2023-05-04T01:05:11.669Z,1.24
2023-05-04T01:06:11.702Z,1.30
2023-05-04T01:07:11.638Z,1.32
2023-05-04T01:08:11.660Z,1.32
2023-05-04T01:09:11.630Z,1.34
2023-05-04T01:10:11.632Z,1.37
2023-05-04T01:11:11.659Z,1.42
2023-05-04T01:12:11.602Z,1.42
2023-05-04T01:13:11.784Z,1.44
2023-05-04T01:14:11.577Z,1.45
2023-05-04T01:15:11.599Z,1.44
2023-05-04T01:16:11.679Z,1.37
2023-05-04T01:17:11.828Z,1.34
2023-05-04T01:18:11.573Z,1.31
2023-05-04T01:19:11.532Z,1.31
2023-05-04T01:20:11.560Z,1.30
2023-05-04T01:21:11.506Z,1.26
2023-05-04T01:22:11.484Z,1.30
2023-05-04T01:23:11.492Z,1.34
2023-05-04T01:24:11.496Z,1.34
2023-05-04T01:25:11.492Z,1.34
2023-05-04T01:26:11.438Z,1.32
2023-05-04T01:27:11.467Z,1.30
2023-05-04T01:28:11.413Z,1.26
2023-05-04T01:29:11.504Z,1.22
2023-05-04T01:30:11.454Z,1.16
2023-05-04T01:31:11.427Z,1.14
2023-05-04T01:32:11.383Z,1.13
2023-05-04T01:33:11.438Z,1.13
2023-05-04T01:34:11.403Z,1.10
2023-05-04T01:35:11.363Z,1.08
2023-05-04T01:36:11.341Z,1.10
2023-05-04T01:37:11.330Z,1.14
2023-05-04T01:38:11.306Z,0.98
2023-05-04T01:39:11.356Z,0.94
2023-05-04T01:40:11.292Z,0.92
2023-05-04T01:41:11.284Z,0.86
2023-05-04T01:42:11.250Z,0.91
2023-05-04T01:43:11.330Z,0.98
2023-05-04T01:44:11.293Z,0.95
2023-05-04T01:45:11.219Z,0.95
2023-05-04T01:46:11.274Z,0.94
2023-05-04T01:47:11.207Z,1.01
2023-05-04T01:48:11.262Z,1.06
2023-05-04T01:49:11.199Z,1.12
2023-05-04T01:50:11.185Z,1.08
2023-05-04T01:51:11.150Z,1.04
2023-05-04T01:52:11.167Z,0.99
2023-05-04T01:53:11.196Z,0.96
2023-05-04T01:54:11.145Z,0.73
2023-05-04T01:55:11.112Z,0.73
2023-05-04T01:56:11.097Z,0.74
2023-05-04T01:57:11.122Z,0.73
2023-05-04T01:58:11.117Z,-39.96
2023-05-04T01:59:11.102Z,0.70
2023-05-04T02:00:11.070Z,0.73
2023-05-04T02:01:11.080Z,0.74
2023-05-04T02:02:11.078Z,0.70
2023-05-04T02:03:11.170Z,0.66
2023-05-04T02:04:11.250Z,0.62
2023-05-04T02:05:11.029Z,0.65
2023-05-04T02:06:10.990Z,0.66
2023-05-04T02:07:11.005Z,0.69
2023-05-04T02:08:10.967Z,0.68
2023-05-04T02:09:10.958Z,0.68
2023-05-04T02:10:10.947Z,0.73
2023-05-04T02:11:10.986Z,0.76
2023-05-04T02:12:10.963Z,0.70
2023-05-04T02:13:10.958Z,0.65
2023-05-04T02:14:10.919Z,0.66
2023-05-04T02:15:10.904Z,0.63
2023-05-04T02:16:10.981Z,0.58
2023-05-04T02:17:10.881Z,0.66
2023-05-04T02:18:10.977Z,0.62
2023-05-04T02:19:10.859Z,0.59
2023-05-04T02:20:10.868Z,0.59
2023-05-04T02:21:10.867Z,0.52
2023-05-04T02:22:10.812Z,0.47
2023-05-04T02:23:10.824Z,0.43
2023-05-04T02:24:10.790Z,0.47
2023-05-04T02:25:10.802Z,0.59
2023-05-04T02:26:10.801Z,0.74
2023-05-04T02:27:10.757Z,0.84
2023-05-04T02:28:10.761Z,0.91
2023-05-04T02:29:10.730Z,0.87
2023-05-04T02:30:10.748Z,0.77
2023-05-04T02:31:10.793Z,0.73
2023-05-04T02:32:10.724Z,0.70
2023-05-04T02:33:10.691Z,0.69
2023-05-04T02:34:10.694Z,0.70
2023-05-04T02:35:10.737Z,0.69
2023-05-04T02:36:10.687Z,0.68
2023-05-04T02:37:10.676Z,0.65
2023-05-04T02:38:10.643Z,0.60
2023-05-04T02:39:10.645Z,0.56
2023-05-04T02:40:10.663Z,0.55
2023-05-04T02:41:10.628Z,0.52
2023-05-04T02:42:10.610Z,0.50
2023-05-04T02:43:10.609Z,0.50
2023-05-04T02:44:10.578Z,0.52
2023-05-04T02:45:10.595Z,0.56
2023-05-04T02:46:10.616Z,0.55
2023-05-04T02:47:10.531Z,0.50
2023-05-04T02:48:10.532Z,0.50
2023-05-04T02:49:10.558Z,0.47
2023-05-04T02:50:10.539Z,0.44
2023-05-04T02:51:10.527Z,0.41
2023-05-04T02:52:10.507Z,0.39
2023-05-04T02:53:10.454Z,0.32
2023-05-04T02:54:10.497Z,0.28
2023-05-04T02:55:10.463Z,0.25
2023-05-04T02:56:10.427Z,0.28
2023-05-04T02:57:10.431Z,0.29
2023-05-04T02:58:10.470Z,0.29
2023-05-04T02:59:10.452Z,0.31
2023-05-04T03:00:10.389Z,0.31
2023-05-04T03:01:10.411Z,0.29
2023-05-04T03:02:10.375Z,0.26
2023-05-04T03:03:10.396Z,0.26
2023-05-04T03:04:10.404Z,0.22
2023-05-04T03:05:10.358Z,0.21
2023-05-04T03:06:10.367Z,0.22
2023-05-04T03:07:10.334Z,0.22
2023-05-04T03:08:10.357Z,0.21
2023-05-04T03:09:10.298Z,0.22
2023-05-04T03:10:10.278Z,0.26
2023-05-04T03:11:10.276Z,0.28
2023-05-04T03:12:10.269Z,-40.00
2023-05-04T03:13:10.323Z,0.28
2023-05-04T03:14:10.232Z,0.26
2023-05-04T03:15:10.200Z,0.28
2023-05-04T03:16:10.226Z,0.22
2023-05-04T03:17:10.253Z,0.12
2023-05-04T03:18:10.296Z,0.07
2023-05-04T03:19:10.212Z,0.07
2023-05-04T03:20:10.182Z,0.08
2023-05-04T03:21:10.155Z,0.08
2023-05-04T03:22:10.180Z,0.08
2023-05-04T03:23:10.134Z,0.04
2023-05-04T03:24:10.113Z,0.00
2023-05-04T03:25:10.121Z,-0.03
2023-05-04T03:26:10.105Z,0.01
2023-05-04T03:27:10.124Z,0.07
2023-05-04T03:28:10.075Z,0.07
2023-05-04T03:29:10.077Z,0.10
2023-05-04T03:30:10.064Z,0.08
2023-05-04T03:31:10.085Z,0.10
2023-05-04T03:32:10.100Z,0.15
2023-05-04T03:33:10.073Z,0.16
2023-05-04T03:34:10.008Z,0.16
2023-05-04T03:35:10.025Z,0.15
2023-05-04T03:36:10.066Z,0.15
2023-05-04T03:37:09.999Z,0.08
2023-05-04T03:38:09.996Z,0.04
2023-05-04T03:39:09.980Z,0.07
2023-05-04T03:40:09.936Z,0.10
2023-05-04T03:41:09.974Z,0.15
2023-05-04T03:42:09.913Z,0.18
2023-05-04T03:43:09.919Z,0.22
2023-05-04T03:44:09.889Z,0.15
2023-05-04T03:45:09.917Z,0.26
2023-05-04T03:46:09.972Z,0.34
2023-05-04T03:47:09.863Z,0.39
2023-05-04T03:48:09.868Z,0.37
2023-05-04T03:49:09.836Z,0.34
2023-05-04T03:50:09.865Z,0.31
2023-05-04T03:51:09.814Z,0.29
2023-05-04T03:52:09.788Z,0.32
2023-05-04T03:53:09.803Z,-40.00
2023-05-04T03:54:09.780Z,-39.96
2023-05-04T03:55:09.807Z,0.40
2023-05-04T03:56:09.750Z,0.47
2023-05-04T03:57:09.753Z,0.52
2023-05-04T03:58:09.748Z,0.52
2023-05-04T03:59:09.777Z,0.50
2023-05-04T04:00:09.736Z,0.50
2023-05-04T04:01:09.727Z,-40.00
2023-05-04T04:02:09.729Z,0.66
2023-05-04T04:03:09.912Z,0.73
2023-05-04T04:04:09.723Z,0.76
2023-05-04T04:05:09.685Z,-40.00
2023-05-04T04:06:09.656Z,0.88
2023-05-04T04:07:09.633Z,0.94
2023-05-04T04:08:09.646Z,0.96
2023-05-04T04:09:09.634Z,-40.00
2023-05-04T04:10:09.630Z,-40.00
2023-05-04T04:11:09.592Z,-40.00
2023-05-04T04:12:09.573Z,1.22
2023-05-04T04:13:09.729Z,1.32
2023-05-04T04:14:09.627Z,1.50
2023-05-04T04:15:09.568Z,1.80
2023-05-04T04:16:09.608Z,2.25
2023-05-04T04:17:09.542Z,2.72
2023-05-04T04:18:09.647Z,3.14
2023-05-04T04:19:09.725Z,3.55
2023-05-04T04:20:09.473Z,3.86
2023-05-04T04:21:09.492Z,4.02
2023-05-04T04:22:09.450Z,4.53
2023-05-04T04:23:09.499Z,4.77
2023-05-04T04:24:09.429Z,5.00
2023-05-04T04:25:09.452Z,5.28
2023-05-04T04:26:09.424Z,5.56
2023-05-04T04:27:09.447Z,5.69
2023-05-04T04:28:09.439Z,6.01
2023-05-04T04:29:09.399Z,6.30
2023-05-04T04:30:09.388Z,6.56
2023-05-04T04:31:09.536Z,6.84
2023-05-04T04:32:09.410Z,7.07
2023-05-04T04:33:09.445Z,7.25
2023-05-04T04:34:09.330Z,7.56
2023-05-04T04:35:09.321Z,7.83
2023-05-04T04:36:09.327Z,8.09
2023-05-04T04:37:09.362Z,8.31
2023-05-04T04:38:09.310Z,8.51
2023-05-04T04:39:09.297Z,8.67
2023-05-04T04:40:09.314Z,8.84
2023-05-04T04:41:09.308Z,9.10
2023-05-04T04:42:09.291Z,9.31
2023-05-04T04:43:09.266Z,9.54
2023-05-04T04:44:09.231Z,9.77
2023-05-04T04:45:09.221Z,9.99
2023-05-04T04:46:09.285Z,10.12
2023-05-04T04:47:09.180Z,10.28
2023-05-04T04:48:09.239Z,10.38
2023-05-04T04:49:09.176Z,10.56
2023-05-04T04:50:09.143Z,-40.00
2023-05-04T04:51:09.208Z,11.17
2023-05-04T04:52:09.143Z,11.37
2023-05-04T04:53:09.156Z,11.51
2023-05-04T04:54:09.133Z,11.70
2023-05-04T04:55:09.148Z,11.84
2023-05-04T04:56:09.125Z,11.97
2023-05-04T04:57:09.092Z,12.17
2023-05-04T04:58:09.088Z,12.39
2023-05-04T04:59:09.089Z,12.58
2023-05-04T05:00:09.106Z,12.80
2023-05-04T05:01:09.062Z,13.01
2023-05-04T05:02:09.032Z,13.12
2023-05-04T05:03:09.057Z,13.22
2023-05-04T05:04:09.013Z,13.35
2023-05-04T05:05:09.101Z,13.47
2023-05-04T05:06:08.988Z,13.63
2023-05-04T05:07:08.994Z,13.16
2023-05-04T05:08:09.004Z,12.82
2023-05-04T05:09:09.008Z,12.85
2023-05-04T05:10:09.003Z,12.62
2023-05-04T05:11:08.932Z,12.31
2023-05-04T05:12:08.904Z,12.28
2023-05-04T05:13:08.968Z,12.47
2023-05-04T05:14:08.963Z,12.27
2023-05-04T05:15:08.903Z,12.58
2023-05-04T05:16:08.932Z,13.01
2023-05-04T05:17:08.949Z,13.15
2023-05-04T05:18:08.911Z,13.57
2023-05-04T05:19:08.901Z,13.59
2023-05-04T05:20:08.826Z,13.57
2023-05-04T05:21:08.803Z,13.57
2023-05-04T05:22:08.814Z,13.54
2023-05-04T05:23:08.859Z,13.54
2023-05-04T05:24:08.820Z,13.86
2023-05-04T05:25:08.802Z,14.10
2023-05-04T05:26:08.762Z,14.48
2023-05-04T05:27:08.754Z,14.55
2023-05-04T05:28:08.773Z,15.06
2023-05-04T05:29:08.726Z,15.36
2023-05-04T05:30:08.727Z,15.33
2023-05-04T05:31:08.704Z,15.59
2023-05-04T05:32:08.702Z,15.82
2023-05-04T05:33:08.726Z,16.10
2023-05-04T05:34:08.679Z,16.21
2023-05-04T05:35:08.687Z,16.05
2023-05-04T05:36:08.653Z,15.98
2023-05-04T05:37:08.670Z,16.09
2023-05-04T05:38:08.673Z,16.38
2023-05-04T05:39:08.613Z,16.72
2023-05-04T05:40:08.621Z,16.79
2023-05-04T05:41:08.580Z,16.81
2023-05-04T05:42:08.619Z,16.26
2023-05-04T05:43:08.571Z,16.56
2023-05-04T05:44:08.597Z,16.65
2023-05-04T05:45:08.542Z,16.16
2023-05-04T05:46:08.573Z,16.53
2023-05-04T05:47:08.531Z,15.17
2023-05-04T05:48:08.614Z,14.08
2023-05-04T05:49:08.523Z,13.83
2023-05-04T05:50:08.692Z,13.38
2023-05-04T05:51:08.493Z,13.75
2023-05-04T05:52:08.511Z,13.74
2023-05-04T05:53:08.453Z,14.07
2023-05-04T05:54:08.447Z,14.11
2023-05-04T05:55:08.436Z,14.69
2023-05-04T05:56:08.479Z,14.78
2023-05-04T05:57:08.428Z,15.57
2023-05-04T05:58:08.420Z,15.33
2023-05-04T05:59:08.411Z,14.68
2023-05-04T06:00:08.393Z,15.02
2023-05-04T06:01:08.398Z,15.58
2023-05-04T06:02:08.416Z,15.68
2023-05-04T06:03:08.458Z,15.94
2023-05-04T06:04:08.408Z,15.91
2023-05-04T06:05:08.346Z,16.02
2023-05-04T06:06:08.372Z,15.98
2023-05-04T06:07:08.311Z,15.94
2023-05-04T06:08:08.306Z,16.12
2023-05-04T06:09:08.311Z,16.71
2023-05-04T06:10:08.418Z,17.12
2023-05-04T06:11:08.302Z,17.19
2023-05-04T06:12:08.249Z,17.12
2023-05-04T06:13:08.295Z,16.26
2023-05-04T06:14:08.205Z,16.58
2023-05-04T06:15:08.223Z,16.78
2023-05-04T06:16:08.246Z,16.15
2023-05-04T06:17:08.168Z,16.91
2023-05-04T06:18:08.178Z,17.60
2023-05-04T06:19:08.163Z,17.65
2023-05-04T06:20:08.305Z,18.13
2023-05-04T06:21:08.153Z,18.73
2023-05-04T06:22:08.120Z,18.81
2023-05-04T06:23:08.106Z,17.94
2023-05-04T06:24:08.164Z,17.87
2023-05-04T06:25:08.494Z,18.16
2023-05-04T06:26:08.085Z,17.90
2023-05-04T06:27:08.074Z,17.65
2023-05-04T06:28:08.076Z,17.20
2023-05-04T06:29:08.092Z,17.23
2023-05-04T06:30:09.166Z,17.63
2023-05-04T06:31:08.060Z,16.68
2023-05-04T06:32:08.155Z,16.35
2023-05-04T06:33:08.067Z,16.13
2023-05-04T06:34:08.029Z,16.89
2023-05-04T06:35:07.986Z,17.65
2023-05-04T06:36:07.981Z,17.97
2023-05-04T06:37:07.986Z,18.19
2023-05-04T06:38:08.012Z,17.05
2023-05-04T06:39:08.058Z,17.59
2023-05-04T06:40:08.079Z,17.44
2023-05-04T06:41:07.951Z,16.76
2023-05-04T06:42:07.911Z,16.74
2023-05-04T06:43:07.918Z,16.64
2023-05-04T06:44:07.865Z,16.42
2023-05-04T06:45:07.859Z,16.46
2023-05-04T06:46:07.915Z,17.41
2023-05-04T06:47:07.953Z,17.29
2023-05-04T06:48:07.957Z,17.19
2023-05-04T06:49:07.837Z,17.74
2023-05-04T06:50:07.817Z,18.23
2023-05-04T06:51:07.813Z,17.68
2023-05-04T06:52:07.776Z,18.41
2023-05-04T06:53:07.824Z,19.51
2023-05-04T06:54:07.817Z,20.34
2023-05-04T06:55:07.755Z,20.14
2023-05-04T06:56:07.737Z,19.56
2023-05-04T06:57:07.757Z,19.30
2023-05-04T06:58:07.786Z,18.11
2023-05-04T06:59:07.716Z,17.86
2023-05-04T07:00:07.706Z,18.28
2023-05-04T07:01:07.734Z,19.00
2023-05-04T07:02:07.708Z,19.37
2023-05-04T07:03:07.733Z,18.62
2023-05-04T07:04:07.885Z,19.30
2023-05-04T07:05:07.691Z,19.21
2023-05-04T07:06:07.659Z,20.03
2023-05-04T07:07:07.671Z,20.34
2023-05-04T07:08:07.618Z,20.41
2023-05-04T07:09:07.596Z,20.00
2023-05-04T07:10:07.599Z,19.55
2023-05-04T07:11:07.592Z,19.94
2023-05-04T07:12:07.607Z,20.36
2023-05-04T07:13:07.733Z,20.51
2023-05-04T07:14:09.783Z,20.32
2023-05-04T07:15:07.528Z,19.55
2023-05-04T07:16:07.606Z,20.06
2023-05-04T07:17:07.558Z,20.78
2023-05-04T07:18:07.533Z,21.09
2023-05-04T07:19:07.494Z,21.07
2023-05-04T07:20:07.743Z,20.55
2023-05-04T07:21:26.210Z,20.39
2023-05-04T07:22:08.442Z,20.40
2023-05-04T07:23:07.440Z,21.07
2023-05-04T07:24:07.446Z,21.14
2023-05-04T07:25:07.425Z,21.00
2023-05-04T07:26:07.435Z,20.65
2023-05-04T07:27:07.435Z,19.62
2023-05-04T07:28:07.384Z,19.51
2023-05-04T07:29:07.389Z,19.51
2023-05-04T07:30:07.467Z,20.24
2023-05-04T07:31:07.377Z,20.21
2023-05-04T07:32:07.384Z,20.51
2023-05-04T07:33:07.388Z,20.55
2023-05-04T07:34:07.312Z,20.48
2023-05-04T07:35:07.319Z,20.13
2023-05-04T07:36:07.296Z,20.18
2023-05-04T07:37:07.252Z,20.59
2023-05-04T07:38:07.242Z,20.41
2023-05-04T07:39:07.282Z,20.56
2023-05-04T07:40:07.637Z,20.00
2023-05-04T07:41:07.331Z,20.00
2023-05-04T07:42:07.222Z,19.41
2023-05-04T07:43:07.203Z,19.02
2023-05-04T07:44:07.239Z,19.96
2023-05-04T07:45:07.235Z,21.06
2023-05-04T07:46:07.231Z,21.39
2023-05-04T07:47:07.155Z,21.24
2023-05-04T07:48:07.179Z,21.18
2023-05-04T07:49:07.168Z,20.43
2023-05-04T07:50:07.244Z,19.95
2023-05-04T07:51:07.122Z,20.06
2023-05-04T07:52:07.147Z,20.37
2023-05-04T07:53:07.089Z,20.58
2023-05-04T07:54:07.116Z,20.55
2023-05-04T07:55:07.085Z,20.95
2023-05-04T07:56:07.046Z,20.67
2023-05-04T07:57:07.057Z,20.62
2023-05-04T07:58:07.088Z,20.59
2023-05-04T07:59:07.097Z,19.47
2023-05-04T08:00:07.288Z,19.34
2023-05-04T08:01:07.084Z,19.67
2023-05-04T08:02:07.045Z,20.00
2023-05-04T08:03:07.072Z,19.92
2023-05-04T08:04:06.958Z,20.07
2023-05-04T08:05:06.925Z,20.34
2023-05-04T08:06:06.929Z,20.78
2023-05-04T08:07:06.938Z,20.25
2023-05-04T08:08:06.971Z,20.18
2023-05-04T08:09:06.942Z,20.18
2023-05-04T08:10:07.039Z,20.24
2023-05-04T08:11:19.263Z,20.97
2023-05-04T08:12:07.954Z,21.24
2023-05-04T08:13:06.948Z,21.00
2023-05-04T08:14:06.874Z,20.80
2023-05-04T08:15:07.006Z,19.94
2023-05-04T08:16:06.847Z,20.44
2023-05-04T08:17:06.866Z,20.99
2023-05-04T08:18:06.932Z,21.33
2023-05-04T08:19:06.804Z,21.82
2023-05-04T08:20:06.797Z,22.91
2023-05-04T08:21:06.808Z,23.74
2023-05-04T08:22:06.827Z,23.84
2023-05-04T08:23:06.829Z,23.74
2023-05-04T08:24:06.749Z,23.25
2023-05-04T08:25:06.985Z,21.64
2023-05-04T08:26:06.762Z,21.91
2023-05-04T08:27:09.019Z,21.21
2023-05-04T08:28:06.720Z,20.52
2023-05-04T08:29:06.695Z,19.64
2023-05-04T08:30:06.692Z,20.31
2023-05-04T08:31:06.714Z,20.28
2023-05-04T08:32:06.756Z,19.85
2023-05-04T08:33:06.652Z,19.85
2023-05-04T08:34:06.631Z,19.88
2023-05-04T08:35:06.854Z,20.19
2023-05-04T08:36:06.677Z,20.43
2023-05-04T08:37:06.655Z,21.54
2023-05-04T08:38:06.622Z,20.66
2023-05-04T08:39:06.625Z,20.37
2023-05-04T08:40:06.658Z,20.52
2023-05-04T08:41:06.605Z,20.92
2023-05-04T08:42:06.564Z,20.74
2023-05-04T08:43:06.539Z,20.51
2023-05-04T08:44:06.557Z,20.11
2023-05-04T08:45:06.725Z,20.50
2023-05-04T08:46:06.679Z,20.43
2023-05-04T08:47:06.507Z,20.67
2023-05-04T08:48:06.555Z,20.90
2023-05-04T08:49:06.530Z,20.75
2023-05-04T08:50:06.504Z,21.52
2023-05-04T08:51:06.478Z,22.47
2023-05-04T08:52:06.461Z,23.41
2023-05-04T08:53:06.446Z,23.41
2023-05-04T08:54:06.461Z,23.65
2023-05-04T08:55:06.606Z,23.92
2023-05-04T08:56:06.409Z,23.59
2023-05-04T08:57:06.372Z,23.71
2023-05-04T08:58:06.381Z,23.09
2023-05-04T08:59:06.417Z,22.70
2023-05-04T09:00:06.377Z,21.88
2023-05-04T09:01:06.430Z,21.30
2023-05-04T09:02:06.463Z,20.95
2023-05-04T09:03:06.482Z,20.36
2023-05-04T09:04:06.395Z,20.39
2023-05-04T09:05:06.554Z,20.85
2023-05-04T09:06:06.292Z,20.67
2023-05-04T09:07:06.279Z,20.60
2023-05-04T09:08:06.277Z,20.02
2023-05-04T09:09:06.323Z,20.04
2023-05-04T09:10:06.247Z,20.56
2023-05-04T09:11:06.250Z,21.05
2023-05-04T09:12:06.226Z,22.18
2023-05-04T09:13:06.294Z,22.29
2023-05-04T09:14:06.261Z,22.36
2023-05-04T09:15:06.505Z,22.32
2023-05-04T09:16:06.197Z,21.79
2023-05-04T09:17:06.251Z,21.57
2023-05-04T09:18:06.243Z,21.85
2023-05-04T09:19:06.164Z,21.93
2023-05-04T09:20:06.141Z,22.14
2023-05-04T09:21:06.146Z,22.30
2023-05-04T09:22:06.114Z,22.32
2023-05-04T09:23:06.134Z,22.45
2023-05-04T09:24:06.105Z,23.17
2023-05-04T09:25:06.228Z,23.32
2023-05-04T09:26:06.077Z,23.84
2023-05-04T09:27:06.115Z,24.51
2023-05-04T09:28:06.072Z,24.08
2023-05-04T09:29:06.043Z,23.43
2023-05-04T09:30:06.036Z,23.23
2023-05-04T09:31:06.147Z,22.51
2023-05-04T09:32:06.052Z,23.21
2023-05-04T09:33:06.040Z,23.17
2023-05-04T09:34:06.007Z,23.32
2023-05-04T09:35:06.208Z,23.34
2023-05-04T09:36:05.974Z,23.27
2023-05-04T09:37:05.997Z,23.91
2023-05-04T09:38:05.963Z,24.76
2023-05-04T09:39:05.950Z,24.78
2023-05-04T09:40:05.952Z,22.29
2023-05-04T09:41:05.959Z,21.39
2023-05-04T09:42:05.945Z,21.77
2023-05-04T09:43:05.894Z,21.61
2023-05-04T09:44:05.888Z,21.51
2023-05-04T09:45:06.280Z,21.42
2023-05-04T09:46:05.937Z,21.72
2023-05-04T09:47:05.881Z,21.57
2023-05-04T09:48:05.909Z,21.52
2023-05-04T09:49:05.826Z,21.83
2023-05-04T09:50:05.957Z,22.54
2023-05-04T09:51:05.867Z,22.80
2023-05-04T09:52:05.831Z,22.80
2023-05-04T09:53:05.792Z,22.90
2023-05-04T09:54:05.792Z,23.03
2023-05-04T09:55:06.024Z,22.55
2023-05-04T09:56:07.938Z,21.21
2023-05-04T09:57:05.773Z,21.06
2023-05-04T09:58:05.720Z,21.69
2023-05-04T09:59:05.749Z,21.98
2023-05-04T10:00:05.780Z,21.80
2023-05-04T10:01:05.747Z,21.57
2023-05-04T10:02:14.563Z,21.15
2023-05-04T10:03:06.715Z,21.70
2023-05-04T10:04:05.692Z,21.76
2023-05-04T10:05:05.971Z,22.11
2023-05-04T10:06:05.692Z,22.76
2023-05-04T10:07:05.691Z,23.21
2023-05-04T10:08:05.669Z,22.84
2023-05-04T10:09:05.633Z,23.39
2023-05-04T10:10:05.678Z,22.90
2023-05-04T10:11:05.616Z,22.41
2023-05-04T10:12:05.569Z,22.53
2023-05-04T10:13:05.609Z,22.39
2023-05-04T10:14:05.560Z,22.35
2023-05-04T10:15:05.790Z,22.20
2023-05-04T10:16:05.593Z,21.70
2023-05-04T10:17:05.531Z,21.42
2023-05-04T10:18:05.542Z,21.89
2023-05-04T10:19:05.527Z,22.26
2023-05-04T10:20:05.549Z,22.96
2023-05-04T10:21:05.484Z,22.44
2023-05-04T10:22:05.469Z,22.29
2023-05-04T10:23:05.484Z,21.76
2023-05-04T10:24:05.488Z,21.54
2023-05-04T10:25:05.718Z,21.48
2023-05-04T10:26:05.435Z,21.46
2023-05-04T10:27:05.444Z,21.21
2023-05-04T10:28:05.410Z,21.33
2023-05-04T10:29:05.470Z,21.95
2023-05-04T10:30:05.388Z,21.77
2023-05-04T10:31:05.403Z,22.45
2023-05-04T10:32:05.474Z,23.17
2023-05-04T10:33:05.436Z,24.03
2023-05-04T10:34:05.384Z,24.18
2023-05-04T10:35:05.735Z,23.50
2023-05-04T10:36:05.308Z,22.94
2023-05-04T10:37:05.325Z,22.85
2023-05-04T10:38:05.373Z,21.27
2023-05-04T10:39:05.339Z,20.97
2023-05-04T10:40:07.308Z,21.20
2023-05-04T10:41:05.250Z,21.76
2023-05-04T10:42:05.298Z,21.21
2023-05-04T10:43:05.290Z,20.90
2023-05-04T10:44:05.251Z,21.43
2023-05-04T10:45:05.350Z,21.64
2023-05-04T10:46:05.244Z,21.67
2023-05-04T10:47:05.231Z,21.52
2023-05-04T10:48:05.345Z,21.77
2023-05-04T10:49:05.219Z,22.14
2023-05-04T10:50:05.181Z,21.95
2023-05-04T10:51:05.171Z,22.26
2023-05-04T10:52:05.162Z,22.73
2023-05-04T10:53:05.201Z,22.63
2023-05-04T10:54:05.169Z,22.91
2023-05-04T10:55:05.390Z,22.70
2023-05-04T10:56:05.124Z,22.48
2023-05-04T10:57:05.141Z,22.00
2023-05-04T10:58:05.135Z,21.22
2023-05-04T10:59:05.079Z,21.72
2023-05-04T11:00:05.083Z,22.55
2023-05-04T11:01:05.087Z,23.39
2023-05-04T11:02:05.178Z,23.96
2023-05-04T11:03:05.146Z,24.45
2023-05-04T11:04:05.024Z,24.98
2023-05-04T11:05:05.390Z,24.81
2023-05-04T11:06:05.009Z,24.30
2023-05-04T11:07:05.044Z,24.42
2023-05-04T11:08:04.983Z,24.89
2023-05-04T11:09:04.997Z,24.33
2023-05-04T11:10:04.962Z,23.46
2023-05-04T11:11:04.966Z,23.25
2023-05-04T11:12:04.961Z,22.90
2023-05-04T11:13:06.448Z,23.00
2023-05-04T11:14:04.944Z,23.46
2023-05-04T11:15:05.220Z,23.09
2023-05-04T11:16:05.025Z,23.59
2023-05-04T11:17:07.334Z,24.28
2023-05-04T11:18:05.927Z,23.58
2023-05-04T11:19:04.865Z,22.57
2023-05-04T11:20:04.854Z,22.15
2023-05-04T11:21:04.920Z,22.44
2023-05-04T11:22:04.853Z,23.24
2023-05-04T11:23:04.834Z,23.55
2023-05-04T11:24:04.858Z,23.91
2023-05-04T11:25:05.041Z,24.08
2023-05-04T11:26:04.872Z,24.08
2023-05-04T11:27:04.785Z,23.92
2023-05-04T11:28:04.757Z,23.71
2023-05-04T11:29:04.775Z,24.23
2023-05-04T11:30:04.787Z,24.57
2023-05-04T11:31:04.827Z,23.92
2023-05-04T11:32:04.750Z,23.68
2023-05-04T11:33:04.832Z,23.87
2023-05-04T11:34:04.708Z,24.06
2023-05-04T11:35:05.017Z,24.10
2023-05-04T11:36:04.696Z,24.32
2023-05-04T11:37:04.694Z,22.53
2023-05-04T11:38:04.664Z,22.45
2023-05-04T11:39:04.672Z,22.28
2023-05-04T11:40:04.682Z,22.66
2023-05-04T11:41:04.623Z,23.36
2023-05-04T11:42:04.618Z,23.36
2023-05-04T11:43:04.658Z,22.98
2023-05-04T11:44:04.672Z,23.55
2023-05-04T11:45:04.884Z,24.20
2023-05-04T11:46:04.700Z,23.00
2023-05-04T11:47:04.558Z,22.94
2023-05-04T11:48:05.408Z,23.03
2023-05-04T11:49:04.599Z,23.40
2023-05-04T11:50:04.566Z,22.91
2023-05-04T11:51:04.524Z,22.55
2023-05-04T11:52:04.543Z,22.22
2023-05-04T11:53:06.709Z,21.43
2023-05-04T11:54:04.602Z,21.83
2023-05-04T11:55:04.862Z,21.92
2023-05-04T11:56:04.486Z,22.32
2023-05-04T11:57:04.465Z,22.66
2023-05-04T11:58:04.475Z,22.78
2023-05-04T11:59:04.482Z,23.21
2023-05-04T12:00:04.410Z,23.43
2023-05-04T12:01:04.747Z,22.98
2023-05-04T12:02:04.440Z,22.32
2023-05-04T12:03:04.617Z,22.75
2023-05-04T12:04:04.606Z,22.25
2023-05-04T12:05:04.503Z,21.77
2023-05-04T12:06:04.408Z,21.54
2023-05-04T12:07:04.350Z,21.60
2023-05-04T12:08:04.431Z,21.35
2023-05-04T12:09:04.352Z,21.95
2023-05-04T12:10:04.353Z,22.38
2023-05-04T12:11:04.363Z,22.57
2023-05-04T12:12:04.349Z,22.26
2023-05-04T12:13:04.366Z,22.41
2023-05-04T12:14:04.331Z,22.84
2023-05-04T12:15:04.408Z,22.72
2023-05-04T12:16:04.353Z,22.54
2023-05-04T12:17:04.295Z,23.12
2023-05-04T12:18:04.328Z,23.59
2023-05-04T12:19:04.233Z,23.65
2023-05-04T12:20:04.230Z,23.12
2023-05-04T12:21:05.089Z,23.23
2023-05-04T12:22:04.220Z,23.74
2023-05-04T12:23:04.205Z,24.17
2023-05-04T12:24:04.184Z,23.91
2023-05-04T12:25:04.569Z,23.13
2023-05-04T12:26:04.179Z,23.69
2023-05-04T12:27:04.210Z,24.30
2023-05-04T12:28:04.133Z,24.89
2023-05-04T12:29:04.131Z,25.50
2023-05-04T12:30:04.161Z,25.93
2023-05-04T12:31:04.113Z,26.26
2023-05-04T12:32:04.187Z,25.78
2023-05-04T12:33:04.097Z,25.69
2023-05-04T12:34:04.054Z,24.80
2023-05-04T12:35:04.085Z,25.14
2023-05-04T12:36:04.077Z,25.13
2023-05-04T12:37:04.072Z,23.31
2023-05-04T12:38:04.036Z,21.83
2023-05-04T12:39:04.030Z,21.21
2023-05-04T12:40:05.604Z,21.50
2023-05-04T12:41:05.035Z,21.77
2023-05-04T12:42:03.996Z,21.61
2023-05-04T12:43:03.998Z,21.66
2023-05-04T12:44:03.979Z,22.38
2023-05-04T12:45:04.160Z,23.13
2023-05-04T12:46:04.008Z,23.24
2023-05-04T12:47:03.973Z,23.23
2023-05-04T12:48:04.005Z,23.02
2023-05-04T12:49:03.934Z,23.34
2023-05-04T12:50:03.977Z,23.56
2023-05-04T12:51:03.974Z,23.77
2023-05-04T12:52:03.906Z,24.06
2023-05-04T12:53:03.853Z,24.05
2023-05-04T12:54:03.865Z,22.68
2023-05-04T12:55:03.989Z,22.07
2023-05-04T12:56:03.854Z,21.72
2023-05-04T12:57:03.836Z,21.45
2023-05-04T12:58:03.850Z,21.77
2023-05-04T12:59:03.801Z,22.35
2023-05-04T13:00:03.857Z,22.91
2023-05-04T13:01:03.826Z,23.02